BGF Airport (Winchester Muni) Information

FAA: BGF - ICAO: KBGF

BGF Airport Location

State Tennessee
County Franklin
City Winchester
BGF Airport is 3 miles southeast of Winchester, TN.
Latitude 35-10-39.1210N
Longitude 086-03-58.1990W
Elevation 978ft

KBGF Airport METARs

METAR KBGF 302115Z AUTO 04012G18KT 10SM CLR 23/06 A2994 RMK A01
Altimeter 29.94"
Temperature 23.0°C (73.4°F)
Wind 40° at 12KT with gusts to 18KT
Clouds Skies are clear.
Visibility 10.0mi
Time observed: 2022-09-30T21:15:00Z

BGF Airport Details

Status Operational
Activation January 1970
Ownership Public
Usage Public
Chart ATLANTA
ATC on-site No
Beacon schedule sunset-sunrise
Beacon color clear green

BGF Airport Contacts

Owner CITY OF WINCHESTER
Owner address WINCHESTER CITY HALL, 7 SOUTH HIGH ST, SUITE 1, WINCHESTER, TN 37398
Owner phone 931-967-4771
Manager STEVE SANDERS
Manager address NORTHCREST MEDICAL CENTER, 100 NORTHCREST DR, SPRINGFIELD, TN 37172
Manager phone 615-384-1598

BGF Airport (Winchester Muni) Radio Frequencies

BGF (Airport) Radio Frequencies

UNICOM 122.8
Common traffic advisory frequency (CTAF) 122.8